Wetterdaten: aktuell Dienstag, 21.08.2018 00:04
Datum Zeit Temp. A. Feuchte A. Luftdruck Regen Wind Richtung Richtung Taupunkt Windchill Windben
21.08.2018 00:04 16,3 C 87 % 1021,6 hPa 0,0 l/m 3,2 km/h (1 Bft) S-SW 202 14,1 C 16,3 C 4,8 km/h (1 Bft)
20.08.2018 23:04 17,2 C 83 % 1021,2 hPa 0,0 l/m 3,2 km/h (1 Bft) NW 315 14,3 C 17,2 C 4,8 km/h (1 Bft)
20.08.2018 22:04 18,4 C 79 % 1020,7 hPa 0,0 l/m 1,6 km/h (1 Bft) N-NW 337 14,7 C 18,4 C 3,2 km/h (1 Bft)
20.08.2018 21:04 21,2 C 75 % 1020,4 hPa 0,0 l/m 0,0 km/h (0 Bft) N 0 16,6 C 21,2 C 0,0 km/h (0 Bft)
20.08.2018 20:04 23,6 C 64 % 1019,7 hPa 0,0 l/m 0,0 km/h (0 Bft) N 0 16,4 C 23,6 C 0,0 km/h (0 Bft)
20.08.2018 19:03 27,6 C 46 % 1019,4 hPa 0,0 l/m 3,2 km/h (1 Bft) N 360 14,9 C 27,6 C 4,8 km/h (1 Bft)
20.08.2018 18:03 28,3 C 41 % 1019,6 hPa 0,0 l/m 0,0 km/h (0 Bft) N-NW 337 13,8 C 28,3 C 1,6 km/h (1 Bft)
20.08.2018 17:01 28,8 C 41 % 1019,8 hPa 0,0 l/m 3,2 km/h (1 Bft) N 360 14,2 C 28,8 C 6,4 km/h (2 Bft)
20.08.2018 16:01 29,0 C 41 % 1020,3 hPa 0,0 l/m 8,0 km/h (2 Bft) W-SW 247 14,4 C 28,8 C 12,9 km/h (3 Bft)
20.08.2018 15:01 29,2 C 45 % 1020,7 hPa 0,0 l/m 6,4 km/h (2 Bft) W-SW 247 16,0 C 29,2 C 8,0 km/h (2 Bft)
20.08.2018 14:01 28,2 C 43 % 1021,3 hPa 0,0 l/m 3,2 km/h (1 Bft) S-SW 202 14,4 C 28,2 C 3,2 km/h (1 Bft)
20.08.2018 13:01 27,1 C 47 % 1021,8 hPa 0,0 l/m 4,8 km/h (1 Bft) O-NO 67 14,8 C 27,1 C 6,4 km/h (2 Bft)
20.08.2018 12:00 26,4 C 47 % 1022,1 hPa 0,0 l/m 3,2 km/h (1 Bft) N-NW 337 14,2 C 26,4 C 4,8 km/h (1 Bft)
20.08.2018 11:00 24,7 C 52 % 1022,3 hPa 0,0 l/m 1,6 km/h (1 Bft) NW 315 14,2 C 24,7 C 4,8 km/h (1 Bft)
20.08.2018 10:00 23,5 C 60 % 1022,5 hPa 0,0 l/m 4,8 km/h (1 Bft) W 270 15,3 C 23,5 C 6,4 km/h (2 Bft)
20.08.2018 09:00 21,8 C 67 % 1022,4 hPa 0,0 l/m 11,3 km/h (2 Bft) SW 225 15,4 C 20,3 C 14,5 km/h (3 Bft)
20.08.2018 08:00 19,1 C 78 % 1022,4 hPa 0,0 l/m 4,8 km/h (1 Bft) S-SW 202 15,2 C 19,1 C 6,4 km/h (2 Bft)
20.08.2018 07:00 15,9 C 86 % 1022,1 hPa 0,0 l/m 4,8 km/h (1 Bft) SW 225 13,6 C 15,9 C 4,8 km/h (1 Bft)
20.08.2018 06:00 15,6 C 86 % 1021,9 hPa 0,0 l/m 4,8 km/h (1 Bft) SW 225 13,3 C 15,6 C 6,4 km/h (2 Bft)
20.08.2018 05:00 15,9 C 85 % 1021,7 hPa 0,0 l/m 6,4 km/h (2 Bft) SW 225 13,4 C 15,9 C 6,4 km/h (2 Bft)
20.08.2018 04:00 14,5 C 89 % 1022,0 hPa 0,0 l/m 4,8 km/h (1 Bft) SW 225 12,7 C 14,5 C 6,4 km/h (2 Bft)
20.08.2018 03:00 15,3 C 87 % 1021,6 hPa 0,0 l/m 3,2 km/h (1 Bft) SW 225 13,1 C 15,3 C 3,2 km/h (1 Bft)
20.08.2018 02:00 16,4 C 86 % 1021,7 hPa 0,0 l/m 3,2 km/h (1 Bft) S-SW 202 14,1 C 16,4 C 4,8 km/h (1 Bft)
20.08.2018 01:00 16,7 C 86 % 1021,8 hPa 0,0 l/m 6,4 km/h (2 Bft) S-SW 202 14,3 C 16,7 C 6,4 km/h (2 Bft)
_ Min-Zeit 04:00 16:02 18:37 - 12:05 - - 03:57 04:00 19:36
Minimum _ 14,5 C 39 % 1019,3 hPa - 0,0 km/h (0 Bft) - - 12,5 C 14,5 C 0,0 km/h (0 Bft)
_ Max-Zeit 14:28 04:05 10:11 01:00 14:11 - - 20:19 14:29 14:11
Maximum _ 29,7 C 90 % 1022,7 hPa 0,0 l/m 16,1 km/h
W-SW (3 Bft)
- - 16,8 C 29,5 C 25,7 km/h
W-NW (4 Bft)
Durchschnitt _ 21,7 C 67 % 1021,3 hPa #0,0 l/m 4,4 km/h (1 Bft) SW - 14,5 C 21,7 C 6,2 km/h (2 Bft)